sensor_id;sensor_type;location;lat;lon;timestamp;temperature;humidity
52669;DHT22;59898;52.786;6.892;2023-03-04T00:01:19;6.40;99.90
52669;DHT22;59898;52.786;6.892;2023-03-04T00:04:40;6.30;99.90
52669;DHT22;59898;52.786;6.892;2023-03-04T00:08:01;6.30;99.90
52669;DHT22;59898;52.786;6.892;2023-03-04T00:11:22;6.30;99.90
52669;DHT22;59898;52.786;6.892;2023-03-04T00:14:42;6.30;99.90
52669;DHT22;59898;52.786;6.892;2023-03-04T00:18:03;6.30;99.90
52669;DHT22;59898;52.786;6.892;2023-03-04T00:21:24;6.30;99.90
52669;DHT22;59898;52.786;6.892;2023-03-04T00:24:44;6.30;99.90
52669;DHT22;59898;52.786;6.892;2023-03-04T00:28:05;6.20;99.90
52669;DHT22;59898;52.786;6.892;2023-03-04T00:31:26;6.20;99.90
52669;DHT22;59898;52.786;6.892;2023-03-04T00:34:46;6.20;99.90
52669;DHT22;59898;52.786;6.892;2023-03-04T00:38:07;6.20;99.90
52669;DHT22;59898;52.786;6.892;2023-03-04T00:41:28;6.20;99.90
52669;DHT22;59898;52.786;6.892;2023-03-04T00:44:48;6.20;99.90
52669;DHT22;59898;52.786;6.892;2023-03-04T00:48:10;6.20;99.90
52669;DHT22;59898;52.786;6.892;2023-03-04T00:51:32;6.20;99.90
52669;DHT22;59898;52.786;6.892;2023-03-04T00:54:53;6.20;99.90
52669;DHT22;59898;52.786;6.892;2023-03-04T00:58:13;6.20;99.90
52669;DHT22;59898;52.786;6.892;2023-03-04T01:01:34;6.20;99.90
52669;DHT22;59898;52.786;6.892;2023-03-04T01:04:54;6.20;99.90
52669;DHT22;59898;52.786;6.892;2023-03-04T01:08:15;6.20;99.90
52669;DHT22;59898;52.786;6.892;2023-03-04T01:11:36;6.30;99.90
52669;DHT22;59898;52.786;6.892;2023-03-04T01:14:57;6.10;99.90
52669;DHT22;59898;52.786;6.892;2023-03-04T01:18:17;6.10;99.90
52669;DHT22;59898;52.786;6.892;2023-03-04T01:21:38;6.20;99.90
52669;DHT22;59898;52.786;6.892;2023-03-04T01:24:59;6.10;99.90
52669;DHT22;59898;52.786;6.892;2023-03-04T01:28:19;6.10;99.90
52669;DHT22;59898;52.786;6.892;2023-03-04T01:31:40;6.10;99.90
52669;DHT22;59898;52.786;6.892;2023-03-04T01:35:01;6.10;99.90
52669;DHT22;59898;52.786;6.892;2023-03-04T01:38:21;6.10;99.90
52669;DHT22;59898;52.786;6.892;2023-03-04T01:41:42;6.10;99.90
52669;DHT22;59898;52.786;6.892;2023-03-04T01:45:03;6.10;99.90
52669;DHT22;59898;52.786;6.892;2023-03-04T01:48:36;6.10;99.90
52669;DHT22;59898;52.786;6.892;2023-03-04T01:51:57;6.10;99.90
52669;DHT22;59898;52.786;6.892;2023-03-04T01:55:20;6.10;99.90
52669;DHT22;59898;52.786;6.892;2023-03-04T01:58:41;6.10;99.90
52669;DHT22;59898;52.786;6.892;2023-03-04T02:02:02;6.00;99.90
52669;DHT22;59898;52.786;6.892;2023-03-04T02:05:23;6.00;99.90
52669;DHT22;59898;52.786;6.892;2023-03-04T02:08:44;6.00;99.90
52669;DHT22;59898;52.786;6.892;2023-03-04T02:12:05;6.00;99.90
52669;DHT22;59898;52.786;6.892;2023-03-04T02:15:26;6.30;99.90
52669;DHT22;59898;52.786;6.892;2023-03-04T02:18:47;6.30;99.90
52669;DHT22;59898;52.786;6.892;2023-03-04T02:22:07;6.00;99.90
52669;DHT22;59898;52.786;6.892;2023-03-04T02:25:34;6.00;99.90
52669;DHT22;59898;52.786;6.892;2023-03-04T02:28:58;6.00;99.90
52669;DHT22;59898;52.786;6.892;2023-03-04T02:32:19;5.90;99.90
52669;DHT22;59898;52.786;6.892;2023-03-04T02:35:40;5.90;99.90
52669;DHT22;59898;52.786;6.892;2023-03-04T02:39:05;5.90;99.90
52669;DHT22;59898;52.786;6.892;2023-03-04T02:42:26;5.90;99.90
52669;DHT22;59898;52.786;6.892;2023-03-04T02:45:49;5.90;99.90
52669;DHT22;59898;52.786;6.892;2023-03-04T02:49:10;5.90;99.90
52669;DHT22;59898;52.786;6.892;2023-03-04T02:52:31;5.90;99.90
52669;DHT22;59898;52.786;6.892;2023-03-04T02:55:51;5.80;99.90
52669;DHT22;59898;52.786;6.892;2023-03-04T02:59:12;5.90;99.90
52669;DHT22;59898;52.786;6.892;2023-03-04T03:02:33;5.90;99.90
52669;DHT22;59898;52.786;6.892;2023-03-04T03:05:53;5.90;99.90
52669;DHT22;59898;52.786;6.892;2023-03-04T03:09:15;5.90;99.90
52669;DHT22;59898;52.786;6.892;2023-03-04T03:12:35;5.90;99.90
52669;DHT22;59898;52.786;6.892;2023-03-04T03:15:56;5.90;99.90
52669;DHT22;59898;52.786;6.892;2023-03-04T03:19:17;5.90;99.90
52669;DHT22;59898;52.786;6.892;2023-03-04T03:22:38;5.90;99.90
52669;DHT22;59898;52.786;6.892;2023-03-04T03:26:00;5.80;99.90
52669;DHT22;59898;52.786;6.892;2023-03-04T03:29:20;5.70;99.90
52669;DHT22;59898;52.786;6.892;2023-03-04T03:32:41;5.70;99.90
52669;DHT22;59898;52.786;6.892;2023-03-04T03:36:02;5.70;99.90
52669;DHT22;59898;52.786;6.892;2023-03-04T03:39:23;5.70;99.90
52669;DHT22;59898;52.786;6.892;2023-03-04T03:42:44;5.60;99.90
52669;DHT22;59898;52.786;6.892;2023-03-04T03:46:04;5.60;99.90
52669;DHT22;59898;52.786;6.892;2023-03-04T03:49:25;5.70;99.90
52669;DHT22;59898;52.786;6.892;2023-03-04T03:52:46;5.70;99.90
52669;DHT22;59898;52.786;6.892;2023-03-04T03:56:06;5.70;99.90
52669;DHT22;59898;52.786;6.892;2023-03-04T03:59:27;5.70;99.90
52669;DHT22;59898;52.786;6.892;2023-03-04T04:02:48;5.70;99.90
52669;DHT22;59898;52.786;6.892;2023-03-04T04:06:08;5.70;99.90
52669;DHT22;59898;52.786;6.892;2023-03-04T04:09:29;5.70;99.90
52669;DHT22;59898;52.786;6.892;2023-03-04T04:12:50;5.70;99.90
52669;DHT22;59898;52.786;6.892;2023-03-04T04:16:11;5.70;99.90
52669;DHT22;59898;52.786;6.892;2023-03-04T04:19:31;5.80;99.90
52669;DHT22;59898;52.786;6.892;2023-03-04T04:22:52;5.70;99.90
52669;DHT22;59898;52.786;6.892;2023-03-04T04:26:13;5.70;99.90
52669;DHT22;59898;52.786;6.892;2023-03-04T04:29:33;5.70;99.90
52669;DHT22;59898;52.786;6.892;2023-03-04T04:32:54;5.90;99.90
52669;DHT22;59898;52.786;6.892;2023-03-04T04:36:15;5.70;99.90
52669;DHT22;59898;52.786;6.892;2023-03-04T04:39:42;5.60;99.90
52669;DHT22;59898;52.786;6.892;2023-03-04T04:43:03;5.70;99.90
52669;DHT22;59898;52.786;6.892;2023-03-04T04:46:24;5.70;99.90
52669;DHT22;59898;52.786;6.892;2023-03-04T04:49:45;5.60;99.90
52669;DHT22;59898;52.786;6.892;2023-03-04T04:53:06;5.60;99.90
52669;DHT22;59898;52.786;6.892;2023-03-04T04:56:27;5.60;99.90
52669;DHT22;59898;52.786;6.892;2023-03-04T04:59:48;5.60;99.90
52669;DHT22;59898;52.786;6.892;2023-03-04T05:03:08;5.60;99.90
52669;DHT22;59898;52.786;6.892;2023-03-04T05:06:29;5.60;99.90
52669;DHT22;59898;52.786;6.892;2023-03-04T05:09:50;5.60;99.90
52669;DHT22;59898;52.786;6.892;2023-03-04T05:13:10;5.90;99.90
52669;DHT22;59898;52.786;6.892;2023-03-04T05:16:31;5.60;99.90
52669;DHT22;59898;52.786;6.892;2023-03-04T05:19:52;5.50;99.90
52669;DHT22;59898;52.786;6.892;2023-03-04T05:23:13;5.50;99.90
52669;DHT22;59898;52.786;6.892;2023-03-04T05:26:33;5.50;99.90
52669;DHT22;59898;52.786;6.892;2023-03-04T05:29:54;5.50;99.90
52669;DHT22;59898;52.786;6.892;2023-03-04T05:33:19;5.50;99.90
52669;DHT22;59898;52.786;6.892;2023-03-04T05:36:40;5.50;99.90
52669;DHT22;59898;52.786;6.892;2023-03-04T05:40:00;5.70;99.90
52669;DHT22;59898;52.786;6.892;2023-03-04T05:43:21;5.50;99.90
52669;DHT22;59898;52.786;6.892;2023-03-04T05:46:42;5.50;99.90
52669;DHT22;59898;52.786;6.892;2023-03-04T05:50:03;5.40;99.90
52669;DHT22;59898;52.786;6.892;2023-03-04T05:53:24;5.40;99.90
52669;DHT22;59898;52.786;6.892;2023-03-04T05:56:45;5.40;99.90
52669;DHT22;59898;52.786;6.892;2023-03-04T06:00:07;5.40;99.90
52669;DHT22;59898;52.786;6.892;2023-03-04T06:03:31;5.50;99.90
52669;DHT22;59898;52.786;6.892;2023-03-04T06:06:51;5.50;99.90
52669;DHT22;59898;52.786;6.892;2023-03-04T06:10:14;5.50;99.90
52669;DHT22;59898;52.786;6.892;2023-03-04T06:13:35;5.40;99.90
52669;DHT22;59898;52.786;6.892;2023-03-04T06:16:56;5.30;99.90
52669;DHT22;59898;52.786;6.892;2023-03-04T06:20:16;5.40;99.90
52669;DHT22;59898;52.786;6.892;2023-03-04T06:23:37;5.30;99.90
52669;DHT22;59898;52.786;6.892;2023-03-04T06:26:58;5.30;99.90
52669;DHT22;59898;52.786;6.892;2023-03-04T06:30:19;5.30;99.90
52669;DHT22;59898;52.786;6.892;2023-03-04T06:33:39;5.20;99.90
52669;DHT22;59898;52.786;6.892;2023-03-04T06:37:00;5.20;99.90
52669;DHT22;59898;52.786;6.892;2023-03-04T06:40:21;5.20;99.90
52669;DHT22;59898;52.786;6.892;2023-03-04T06:43:42;5.20;99.90
52669;DHT22;59898;52.786;6.892;2023-03-04T06:47:03;5.20;99.90
52669;DHT22;59898;52.786;6.892;2023-03-04T06:50:23;5.20;99.90
52669;DHT22;59898;52.786;6.892;2023-03-04T06:53:45;5.20;99.90
52669;DHT22;59898;52.786;6.892;2023-03-04T06:57:06;5.20;99.90
52669;DHT22;59898;52.786;6.892;2023-03-04T07:00:26;5.20;99.90
52669;DHT22;59898;52.786;6.892;2023-03-04T07:03:48;5.30;99.90
52669;DHT22;59898;52.786;6.892;2023-03-04T07:07:10;5.30;99.90
52669;DHT22;59898;52.786;6.892;2023-03-04T07:10:31;5.30;99.90
52669;DHT22;59898;52.786;6.892;2023-03-04T07:13:52;5.40;99.90
52669;DHT22;59898;52.786;6.892;2023-03-04T07:17:12;5.50;99.90
52669;DHT22;59898;52.786;6.892;2023-03-04T07:20:33;5.50;99.90
52669;DHT22;59898;52.786;6.892;2023-03-04T07:23:54;5.50;99.90
52669;DHT22;59898;52.786;6.892;2023-03-04T07:27:14;5.50;99.90
52669;DHT22;59898;52.786;6.892;2023-03-04T07:30:35;5.50;99.90
52669;DHT22;59898;52.786;6.892;2023-03-04T07:33:58;5.50;99.90
52669;DHT22;59898;52.786;6.892;2023-03-04T07:37:19;5.60;99.90
52669;DHT22;59898;52.786;6.892;2023-03-04T07:40:40;5.50;99.90
52669;DHT22;59898;52.786;6.892;2023-03-04T07:44:02;5.50;99.90
52669;DHT22;59898;52.786;6.892;2023-03-04T07:47:23;5.60;99.90
52669;DHT22;59898;52.786;6.892;2023-03-04T07:50:44;5.60;99.90
52669;DHT22;59898;52.786;6.892;2023-03-04T07:54:04;5.70;99.90
52669;DHT22;59898;52.786;6.892;2023-03-04T07:57:25;6.00;99.90
52669;DHT22;59898;52.786;6.892;2023-03-04T08:00:45;6.10;99.90
52669;DHT22;59898;52.786;6.892;2023-03-04T08:04:06;6.30;99.90
52669;DHT22;59898;52.786;6.892;2023-03-04T08:07:27;6.40;99.90
52669;DHT22;59898;52.786;6.892;2023-03-04T08:10:48;6.30;99.90
52669;DHT22;59898;52.786;6.892;2023-03-04T08:14:11;6.40;99.90
52669;DHT22;59898;52.786;6.892;2023-03-04T08:17:31;6.40;99.90
52669;DHT22;59898;52.786;6.892;2023-03-04T08:20:52;6.40;99.90
52669;DHT22;59898;52.786;6.892;2023-03-04T08:24:13;6.40;99.90
52669;DHT22;59898;52.786;6.892;2023-03-04T08:27:33;6.30;99.90
52669;DHT22;59898;52.786;6.892;2023-03-04T08:30:54;6.30;99.90
52669;DHT22;59898;52.786;6.892;2023-03-04T08:34:18;6.30;99.90
52669;DHT22;59898;52.786;6.892;2023-03-04T08:37:39;6.30;99.90
52669;DHT22;59898;52.786;6.892;2023-03-04T08:41:00;6.20;99.90
52669;DHT22;59898;52.786;6.892;2023-03-04T08:44:22;6.50;99.90
52669;DHT22;59898;52.786;6.892;2023-03-04T08:47:42;6.20;99.90
52669;DHT22;59898;52.786;6.892;2023-03-04T08:51:08;6.30;99.90
52669;DHT22;59898;52.786;6.892;2023-03-04T08:54:29;6.30;99.90
52669;DHT22;59898;52.786;6.892;2023-03-04T08:57:50;6.40;99.90
52669;DHT22;59898;52.786;6.892;2023-03-04T09:01:12;6.40;99.90
52669;DHT22;59898;52.786;6.892;2023-03-04T09:04:33;6.40;99.90
52669;DHT22;59898;52.786;6.892;2023-03-04T09:07:53;6.40;99.90
52669;DHT22;59898;52.786;6.892;2023-03-04T09:11:14;6.40;99.90
52669;DHT22;59898;52.786;6.892;2023-03-04T09:14:35;6.40;99.90
52669;DHT22;59898;52.786;6.892;2023-03-04T09:17:56;6.40;99.90
52669;DHT22;59898;52.786;6.892;2023-03-04T09:21:17;6.40;99.90
52669;DHT22;59898;52.786;6.892;2023-03-04T09:24:37;6.40;99.90
52669;DHT22;59898;52.786;6.892;2023-03-04T09:27:58;6.40;99.90
52669;DHT22;59898;52.786;6.892;2023-03-04T09:31:20;6.40;99.90
52669;DHT22;59898;52.786;6.892;2023-03-04T09:34:40;6.50;99.90
52669;DHT22;59898;52.786;6.892;2023-03-04T09:38:01;6.60;99.90
52669;DHT22;59898;52.786;6.892;2023-03-04T09:41:39;6.70;99.90
52669;DHT22;59898;52.786;6.892;2023-03-04T09:45:02;6.80;99.90
52669;DHT22;59898;52.786;6.892;2023-03-04T09:48:26;6.80;99.90
52669;DHT22;59898;52.786;6.892;2023-03-04T09:52:18;6.90;99.90
52669;DHT22;59898;52.786;6.892;2023-03-04T09:55:44;6.90;99.90
52669;DHT22;59898;52.786;6.892;2023-03-04T09:59:32;7.00;99.90
52669;DHT22;59898;52.786;6.892;2023-03-04T10:03:16;7.00;99.90
52669;DHT22;59898;52.786;6.892;2023-03-04T10:06:39;6.90;99.90
52669;DHT22;59898;52.786;6.892;2023-03-04T10:10:13;7.00;99.90
52669;DHT22;59898;52.786;6.892;2023-03-04T10:21:23;7.10;99.90
52669;DHT22;59898;52.786;6.892;2023-03-04T10:24:46;7.30;99.90
52669;DHT22;59898;52.786;6.892;2023-03-04T10:31:35;7.40;99.90
52669;DHT22;59898;52.786;6.892;2023-03-04T10:34:57;7.40;99.90
52669;DHT22;59898;52.786;6.892;2023-03-04T10:38:20;7.30;99.90
52669;DHT22;59898;52.786;6.892;2023-03-04T10:41:41;7.30;99.90
52669;DHT22;59898;52.786;6.892;2023-03-04T10:45:03;7.20;99.90
52669;DHT22;59898;52.786;6.892;2023-03-04T10:48:26;7.20;99.90
52669;DHT22;59898;52.786;6.892;2023-03-04T10:52:37;7.30;99.90
52669;DHT22;59898;52.786;6.892;2023-03-04T10:55:43;7.40;99.90
52669;DHT22;59898;52.786;6.892;2023-03-04T11:02:47;7.80;99.90
52669;DHT22;59898;52.786;6.892;2023-03-04T11:06:21;8.20;99.90
52669;DHT22;59898;52.786;6.892;2023-03-04T11:09:44;8.40;99.90
52669;DHT22;59898;52.786;6.892;2023-03-04T11:16:31;8.30;99.90
52669;DHT22;59898;52.786;6.892;2023-03-04T11:20:17;8.20;99.90
52669;DHT22;59898;52.786;6.892;2023-03-04T11:27:25;7.80;99.90
52669;DHT22;59898;52.786;6.892;2023-03-04T11:31:02;7.70;99.90
52669;DHT22;59898;52.786;6.892;2023-03-04T11:34:43;7.60;99.90
52669;DHT22;59898;52.786;6.892;2023-03-04T11:38:21;7.60;99.90
52669;DHT22;59898;52.786;6.892;2023-03-04T11:41:53;7.80;99.90
52669;DHT22;59898;52.786;6.892;2023-03-04T11:53:22;8.30;99.90
52669;DHT22;59898;52.786;6.892;2023-03-04T11:56:49;8.30;99.90
52669;DHT22;59898;52.786;6.892;2023-03-04T12:19:00;8.90;99.90
52669;DHT22;59898;52.786;6.892;2023-03-04T12:22:37;8.90;99.90
52669;DHT22;59898;52.786;6.892;2023-03-04T12:44:12;9.50;99.90
52669;DHT22;59898;52.786;6.892;2023-03-04T12:48:36;9.40;99.90
52669;DHT22;59898;52.786;6.892;2023-03-04T12:51:39;9.20;99.90
52669;DHT22;59898;52.786;6.892;2023-03-04T12:55:10;9.10;99.90
52669;DHT22;59898;52.786;6.892;2023-03-04T12:58:32;9.00;99.90
52669;DHT22;59898;52.786;6.892;2023-03-04T13:02:26;8.90;99.90
52669;DHT22;59898;52.786;6.892;2023-03-04T13:09:32;9.00;99.90
52669;DHT22;59898;52.786;6.892;2023-03-04T13:12:55;9.10;99.90
52669;DHT22;59898;52.786;6.892;2023-03-04T13:16:37;8.90;99.90
52669;DHT22;59898;52.786;6.892;2023-03-04T13:23:42;8.70;99.90
52669;DHT22;59898;52.786;6.892;2023-03-04T13:31:22;8.50;99.90
52669;DHT22;59898;52.786;6.892;2023-03-04T13:41:59;8.50;99.90
52669;DHT22;59898;52.786;6.892;2023-03-04T13:45:40;8.40;99.90
52669;DHT22;59898;52.786;6.892;2023-03-04T13:49:02;8.20;99.90
52669;DHT22;59898;52.786;6.892;2023-03-04T13:52:39;8.20;99.90
52669;DHT22;59898;52.786;6.892;2023-03-04T13:56:39;8.10;99.90
52669;DHT22;59898;52.786;6.892;2023-03-04T13:59:54;8.10;99.90
52669;DHT22;59898;52.786;6.892;2023-03-04T14:03:25;8.10;99.90
52669;DHT22;59898;52.786;6.892;2023-03-04T14:06:51;8.10;99.90
52669;DHT22;59898;52.786;6.892;2023-03-04T14:13:34;8.10;99.90
52669;DHT22;59898;52.786;6.892;2023-03-04T14:17:03;8.10;99.90
52669;DHT22;59898;52.786;6.892;2023-03-04T14:20:29;8.10;99.90
52669;DHT22;59898;52.786;6.892;2023-03-04T14:24:10;8.00;99.90
52669;DHT22;59898;52.786;6.892;2023-03-04T14:27:34;7.90;99.90
52669;DHT22;59898;52.786;6.892;2023-03-04T14:30:56;7.70;99.90
52669;DHT22;59898;52.786;6.892;2023-03-04T14:34:24;7.60;99.90
52669;DHT22;59898;52.786;6.892;2023-03-04T14:41:18;7.60;99.90
52669;DHT22;59898;52.786;6.892;2023-03-04T14:44:44;7.70;99.90
52669;DHT22;59898;52.786;6.892;2023-03-04T14:48:06;7.70;99.90
52669;DHT22;59898;52.786;6.892;2023-03-04T14:51:51;7.80;99.90
52669;DHT22;59898;52.786;6.892;2023-03-04T14:55:24;7.80;99.90
52669;DHT22;59898;52.786;6.892;2023-03-04T14:58:53;7.80;99.90
52669;DHT22;59898;52.786;6.892;2023-03-04T15:02:37;7.90;99.90
52669;DHT22;59898;52.786;6.892;2023-03-04T15:06:19;8.00;99.90
52669;DHT22;59898;52.786;6.892;2023-03-04T15:09:40;7.90;99.90
52669;DHT22;59898;52.786;6.892;2023-03-04T15:13:07;7.90;99.90
52669;DHT22;59898;52.786;6.892;2023-03-04T15:16:54;7.80;99.90
52669;DHT22;59898;52.786;6.892;2023-03-04T15:20:24;7.80;99.90
52669;DHT22;59898;52.786;6.892;2023-03-04T15:23:45;7.70;99.90
52669;DHT22;59898;52.786;6.892;2023-03-04T15:27:09;7.60;99.90
52669;DHT22;59898;52.786;6.892;2023-03-04T15:30:33;7.60;99.90
52669;DHT22;59898;52.786;6.892;2023-03-04T15:33:53;7.40;99.90
52669;DHT22;59898;52.786;6.892;2023-03-04T15:37:20;7.30;99.90
52669;DHT22;59898;52.786;6.892;2023-03-04T15:40:41;7.20;99.90
52669;DHT22;59898;52.786;6.892;2023-03-04T15:44:02;7.10;99.90
52669;DHT22;59898;52.786;6.892;2023-03-04T15:47:23;7.10;99.90
52669;DHT22;59898;52.786;6.892;2023-03-04T15:50:59;7.00;99.90
52669;DHT22;59898;52.786;6.892;2023-03-04T15:54:21;7.00;99.90
52669;DHT22;59898;52.786;6.892;2023-03-04T15:57:45;7.00;99.90
52669;DHT22;59898;52.786;6.892;2023-03-04T16:01:06;6.90;99.90
52669;DHT22;59898;52.786;6.892;2023-03-04T16:04:27;6.90;99.90
52669;DHT22;59898;52.786;6.892;2023-03-04T16:07:49;6.90;99.90
52669;DHT22;59898;52.786;6.892;2023-03-04T16:11:22;6.90;99.90
52669;DHT22;59898;52.786;6.892;2023-03-04T16:14:43;6.80;99.90
52669;DHT22;59898;52.786;6.892;2023-03-04T16:18:06;6.70;99.90
52669;DHT22;59898;52.786;6.892;2023-03-04T16:21:27;6.70;99.90
52669;DHT22;59898;52.786;6.892;2023-03-04T16:24:48;6.70;99.90
52669;DHT22;59898;52.786;6.892;2023-03-04T16:28:10;6.70;99.90
52669;DHT22;59898;52.786;6.892;2023-03-04T16:31:31;6.60;99.90
52669;DHT22;59898;52.786;6.892;2023-03-04T16:34:52;6.60;99.90
52669;DHT22;59898;52.786;6.892;2023-03-04T16:38:32;6.50;99.90
52669;DHT22;59898;52.786;6.892;2023-03-04T16:41:52;6.50;99.90
52669;DHT22;59898;52.786;6.892;2023-03-04T16:45:17;6.50;99.90
52669;DHT22;59898;52.786;6.892;2023-03-04T16:48:39;6.40;99.90
52669;DHT22;59898;52.786;6.892;2023-03-04T16:52:00;6.50;99.90
52669;DHT22;59898;52.786;6.892;2023-03-04T16:55:25;6.50;99.90
52669;DHT22;59898;52.786;6.892;2023-03-04T16:58:47;6.50;99.90
52669;DHT22;59898;52.786;6.892;2023-03-04T17:02:19;6.50;99.90
52669;DHT22;59898;52.786;6.892;2023-03-04T17:05:40;6.40;99.90
52669;DHT22;59898;52.786;6.892;2023-03-04T17:09:02;6.30;99.90
52669;DHT22;59898;52.786;6.892;2023-03-04T17:12:23;6.20;99.90
52669;DHT22;59898;52.786;6.892;2023-03-04T17:15:44;6.10;99.90
52669;DHT22;59898;52.786;6.892;2023-03-04T17:19:06;6.00;99.90
52669;DHT22;59898;52.786;6.892;2023-03-04T17:22:26;6.00;99.90
52669;DHT22;59898;52.786;6.892;2023-03-04T17:25:54;6.00;99.90
52669;DHT22;59898;52.786;6.892;2023-03-04T17:29:15;6.10;99.90
52669;DHT22;59898;52.786;6.892;2023-03-04T17:32:36;6.00;99.90
52669;DHT22;59898;52.786;6.892;2023-03-04T17:35:58;6.00;99.90
52669;DHT22;59898;52.786;6.892;2023-03-04T17:39:19;6.00;99.90
52669;DHT22;59898;52.786;6.892;2023-03-04T17:42:42;5.90;99.90
52669;DHT22;59898;52.786;6.892;2023-03-04T17:46:05;6.00;99.90
52669;DHT22;59898;52.786;6.892;2023-03-04T17:49:26;5.90;99.90
52669;DHT22;59898;52.786;6.892;2023-03-04T17:52:47;5.90;99.90
52669;DHT22;59898;52.786;6.892;2023-03-04T17:56:09;5.90;99.90
52669;DHT22;59898;52.786;6.892;2023-03-04T17:59:31;5.90;99.90
52669;DHT22;59898;52.786;6.892;2023-03-04T18:02:51;5.90;99.90
52669;DHT22;59898;52.786;6.892;2023-03-04T18:06:12;6.00;99.90
52669;DHT22;59898;52.786;6.892;2023-03-04T18:09:33;5.90;99.90
52669;DHT22;59898;52.786;6.892;2023-03-04T18:12:54;5.90;99.90
52669;DHT22;59898;52.786;6.892;2023-03-04T18:16:15;5.90;99.90
52669;DHT22;59898;52.786;6.892;2023-03-04T18:19:38;5.80;99.90
52669;DHT22;59898;52.786;6.892;2023-03-04T18:22:58;5.80;99.90
52669;DHT22;59898;52.786;6.892;2023-03-04T18:26:20;5.80;99.90
52669;DHT22;59898;52.786;6.892;2023-03-04T18:29:44;5.80;99.90
52669;DHT22;59898;52.786;6.892;2023-03-04T18:33:05;5.70;99.90
52669;DHT22;59898;52.786;6.892;2023-03-04T18:36:26;5.70;99.90
52669;DHT22;59898;52.786;6.892;2023-03-04T18:39:46;5.70;99.90
52669;DHT22;59898;52.786;6.892;2023-03-04T18:43:07;5.70;99.90
52669;DHT22;59898;52.786;6.892;2023-03-04T18:46:42;5.70;99.90
52669;DHT22;59898;52.786;6.892;2023-03-04T18:50:03;5.60;99.90
52669;DHT22;59898;52.786;6.892;2023-03-04T18:53:26;5.50;99.90
52669;DHT22;59898;52.786;6.892;2023-03-04T18:56:51;5.50;99.90
52669;DHT22;59898;52.786;6.892;2023-03-04T19:00:16;5.60;99.90
52669;DHT22;59898;52.786;6.892;2023-03-04T19:03:37;5.50;99.90
52669;DHT22;59898;52.786;6.892;2023-03-04T19:06:59;5.60;99.90
52669;DHT22;59898;52.786;6.892;2023-03-04T19:10:20;5.60;99.90
52669;DHT22;59898;52.786;6.892;2023-03-04T19:13:40;5.60;99.90
52669;DHT22;59898;52.786;6.892;2023-03-04T19:17:01;5.50;99.90
52669;DHT22;59898;52.786;6.892;2023-03-04T19:20:22;5.50;99.90
52669;DHT22;59898;52.786;6.892;2023-03-04T19:23:42;5.50;99.90
52669;DHT22;59898;52.786;6.892;2023-03-04T19:27:03;5.60;99.90
52669;DHT22;59898;52.786;6.892;2023-03-04T19:30:24;5.60;99.90
52669;DHT22;59898;52.786;6.892;2023-03-04T19:33:46;5.50;99.90
52669;DHT22;59898;52.786;6.892;2023-03-04T19:37:07;5.50;99.90
52669;DHT22;59898;52.786;6.892;2023-03-04T19:40:28;5.50;99.90
52669;DHT22;59898;52.786;6.892;2023-03-04T19:43:48;5.40;99.90
52669;DHT22;59898;52.786;6.892;2023-03-04T19:47:09;5.30;99.90
52669;DHT22;59898;52.786;6.892;2023-03-04T19:50:31;5.20;99.90
52669;DHT22;59898;52.786;6.892;2023-03-04T19:53:52;5.20;99.90
52669;DHT22;59898;52.786;6.892;2023-03-04T19:57:13;5.20;99.90
52669;DHT22;59898;52.786;6.892;2023-03-04T20:00:34;5.10;99.90
52669;DHT22;59898;52.786;6.892;2023-03-04T20:03:57;5.10;99.90
52669;DHT22;59898;52.786;6.892;2023-03-04T20:07:18;5.10;99.90
52669;DHT22;59898;52.786;6.892;2023-03-04T20:10:39;5.00;99.90
52669;DHT22;59898;52.786;6.892;2023-03-04T20:14:00;5.00;99.90
52669;DHT22;59898;52.786;6.892;2023-03-04T20:17:21;5.00;99.90
52669;DHT22;59898;52.786;6.892;2023-03-04T20:20:42;5.00;99.90
52669;DHT22;59898;52.786;6.892;2023-03-04T20:24:03;5.00;99.90
52669;DHT22;59898;52.786;6.892;2023-03-04T20:27:24;5.10;99.90
52669;DHT22;59898;52.786;6.892;2023-03-04T20:30:45;5.00;99.90
52669;DHT22;59898;52.786;6.892;2023-03-04T20:34:06;5.00;99.90
52669;DHT22;59898;52.786;6.892;2023-03-04T20:37:27;5.00;99.90
52669;DHT22;59898;52.786;6.892;2023-03-04T20:40:48;5.50;99.90
52669;DHT22;59898;52.786;6.892;2023-03-04T20:44:09;5.10;99.90
52669;DHT22;59898;52.786;6.892;2023-03-04T20:47:29;5.00;99.90
52669;DHT22;59898;52.786;6.892;2023-03-04T20:50:50;5.20;99.90
52669;DHT22;59898;52.786;6.892;2023-03-04T20:54:11;5.10;99.90
52669;DHT22;59898;52.786;6.892;2023-03-04T20:57:32;5.00;99.90
52669;DHT22;59898;52.786;6.892;2023-03-04T21:00:52;5.00;99.90
52669;DHT22;59898;52.786;6.892;2023-03-04T21:04:13;5.00;99.90
52669;DHT22;59898;52.786;6.892;2023-03-04T21:07:34;5.00;99.90
52669;DHT22;59898;52.786;6.892;2023-03-04T21:10:55;5.00;99.90
52669;DHT22;59898;52.786;6.892;2023-03-04T21:14:26;5.00;99.90
52669;DHT22;59898;52.786;6.892;2023-03-04T21:17:47;5.00;99.90
52669;DHT22;59898;52.786;6.892;2023-03-04T21:21:17;4.90;99.90
52669;DHT22;59898;52.786;6.892;2023-03-04T21:24:39;4.90;99.90
52669;DHT22;59898;52.786;6.892;2023-03-04T21:28:00;4.90;99.90
52669;DHT22;59898;52.786;6.892;2023-03-04T21:31:27;4.90;99.90
52669;DHT22;59898;52.786;6.892;2023-03-04T21:34:48;4.90;99.90
52669;DHT22;59898;52.786;6.892;2023-03-04T21:38:11;4.90;99.90
52669;DHT22;59898;52.786;6.892;2023-03-04T21:41:32;4.90;99.90
52669;DHT22;59898;52.786;6.892;2023-03-04T21:44:52;4.90;99.90
52669;DHT22;59898;52.786;6.892;2023-03-04T21:48:13;4.90;99.90
52669;DHT22;59898;52.786;6.892;2023-03-04T21:51:34;4.80;99.90
52669;DHT22;59898;52.786;6.892;2023-03-04T21:54:55;4.80;99.90
52669;DHT22;59898;52.786;6.892;2023-03-04T21:58:16;4.70;99.90
52669;DHT22;59898;52.786;6.892;2023-03-04T22:01:36;4.60;99.90
52669;DHT22;59898;52.786;6.892;2023-03-04T22:04:57;4.90;99.90
52669;DHT22;59898;52.786;6.892;2023-03-04T22:08:19;4.70;99.90
52669;DHT22;59898;52.786;6.892;2023-03-04T22:11:40;4.60;99.90
52669;DHT22;59898;52.786;6.892;2023-03-04T22:15:00;4.60;99.90
52669;DHT22;59898;52.786;6.892;2023-03-04T22:18:21;4.60;99.90
52669;DHT22;59898;52.786;6.892;2023-03-04T22:21:42;4.80;99.90
52669;DHT22;59898;52.786;6.892;2023-03-04T22:25:02;4.60;99.90
52669;DHT22;59898;52.786;6.892;2023-03-04T22:28:23;4.60;99.90
52669;DHT22;59898;52.786;6.892;2023-03-04T22:31:47;4.70;99.90
52669;DHT22;59898;52.786;6.892;2023-03-04T22:35:08;4.60;99.90
52669;DHT22;59898;52.786;6.892;2023-03-04T22:38:29;4.50;99.90
52669;DHT22;59898;52.786;6.892;2023-03-04T22:41:50;4.50;99.90
52669;DHT22;59898;52.786;6.892;2023-03-04T22:45:12;4.50;99.90
52669;DHT22;59898;52.786;6.892;2023-03-04T22:48:33;4.50;99.90
52669;DHT22;59898;52.786;6.892;2023-03-04T22:51:54;4.50;99.90
52669;DHT22;59898;52.786;6.892;2023-03-04T22:55:16;4.50;99.90
52669;DHT22;59898;52.786;6.892;2023-03-04T22:58:37;4.40;99.90
52669;DHT22;59898;52.786;6.892;2023-03-04T23:01:58;4.50;99.90
52669;DHT22;59898;52.786;6.892;2023-03-04T23:05:18;4.50;99.90
52669;DHT22;59898;52.786;6.892;2023-03-04T23:08:44;4.40;99.90
52669;DHT22;59898;52.786;6.892;2023-03-04T23:12:05;4.40;99.90
52669;DHT22;59898;52.786;6.892;2023-03-04T23:15:26;4.30;99.90